createdAt,value
2023-04-27T00:00:13.604Z,9.30
2023-04-27T00:02:43.078Z,9.30
2023-04-27T00:05:13.588Z,9.30
2023-04-27T00:07:43.130Z,9.30
2023-04-27T00:10:12.649Z,9.30
2023-04-27T00:12:42.680Z,9.20
2023-04-27T00:15:13.648Z,9.10
2023-04-27T00:17:43.587Z,9.10
2023-04-27T00:20:13.175Z,9.10
2023-04-27T00:22:43.118Z,9.20
2023-04-27T00:25:12.780Z,9.10
2023-04-27T00:27:41.903Z,9.10
2023-04-27T00:30:13.585Z,9.10
2023-04-27T00:32:42.640Z,9.00
2023-04-27T00:35:12.564Z,9.10
2023-04-27T00:37:41.506Z,9.00
2023-04-27T00:40:11.315Z,8.90
2023-04-27T00:42:40.251Z,8.90
2023-04-27T00:45:10.672Z,9.00
2023-04-27T00:47:41.389Z,8.90
2023-04-27T00:50:12.118Z,8.90
2023-04-27T00:52:41.868Z,8.90
2023-04-27T00:55:10.808Z,8.80
2023-04-27T00:57:42.164Z,8.80
2023-04-27T01:00:13.690Z,8.90
2023-04-27T01:02:46.449Z,8.90
2023-04-27T01:05:15.342Z,8.90
2023-04-27T01:07:44.190Z,8.90
2023-04-27T01:10:13.013Z,8.80
2023-04-27T01:12:41.772Z,8.70
2023-04-27T01:15:12.499Z,8.70
2023-04-27T01:17:41.736Z,8.70
2023-04-27T01:20:12.980Z,8.60
2023-04-27T01:22:42.141Z,8.70
2023-04-27T01:25:13.226Z,8.60
2023-04-27T01:27:42.141Z,8.60
2023-04-27T01:30:13.502Z,8.50
2023-04-27T01:32:43.050Z,8.50
2023-04-27T01:35:12.804Z,8.50
2023-04-27T01:37:41.795Z,8.40
2023-04-27T01:40:14.544Z,8.30
2023-04-27T01:42:43.281Z,8.20
2023-04-27T01:45:13.336Z,8.30
2023-04-27T01:47:42.384Z,8.20
2023-04-27T01:50:11.881Z,8.30
2023-04-27T01:52:41.849Z,8.30
2023-04-27T01:55:11.596Z,8.30
2023-04-27T01:57:42.375Z,8.30
2023-04-27T02:00:12.482Z,8.40
2023-04-27T02:02:51.525Z,8.40
2023-04-27T02:05:20.672Z,8.30
2023-04-27T02:07:51.307Z,8.30
2023-04-27T02:10:22.314Z,8.30
2023-04-27T02:12:52.899Z,8.20
2023-04-27T02:15:22.343Z,8.20
2023-04-27T02:17:51.665Z,8.20
2023-04-27T02:20:21.993Z,8.20
2023-04-27T02:22:50.746Z,8.10
2023-04-27T02:25:20.342Z,8.10
2023-04-27T02:27:49.154Z,8.00
2023-04-27T02:30:20.546Z,8.10
2023-04-27T02:32:50.642Z,8.00
2023-04-27T02:35:19.843Z,8.00
2023-04-27T02:37:48.680Z,8.00
2023-04-27T02:40:17.860Z,7.90
2023-04-27T02:42:47.050Z,7.90
2023-04-27T02:45:15.976Z,8.00
2023-04-27T02:47:46.548Z,7.90
2023-04-27T02:50:16.163Z,7.90
2023-04-27T02:52:45.099Z,7.80
2023-04-27T02:55:14.790Z,7.70
2023-04-27T02:57:44.057Z,7.70
2023-04-27T03:00:14.382Z,7.70
2023-04-27T03:02:44.007Z,7.70
2023-04-27T03:05:14.459Z,7.50
2023-04-27T03:07:43.479Z,7.40
2023-04-27T03:10:12.435Z,7.40
2023-04-27T03:12:41.198Z,7.30
2023-04-27T03:15:11.369Z,7.30
2023-04-27T03:17:40.497Z,7.30
2023-04-27T03:20:10.485Z,7.40
2023-04-27T03:22:40.706Z,7.40
2023-04-27T03:25:10.542Z,7.50
2023-04-27T03:27:43.328Z,7.40
2023-04-27T03:30:14.904Z,7.50
2023-04-27T03:32:45.035Z,7.50
2023-04-27T03:35:16.635Z,7.50
2023-04-27T03:37:49.000Z,7.40
2023-04-27T03:40:18.298Z,7.40
2023-04-27T03:42:47.558Z,7.40
2023-04-27T03:45:18.577Z,7.40
2023-04-27T03:47:48.322Z,7.40
2023-04-27T03:50:17.573Z,7.30
2023-04-27T03:52:48.126Z,7.20
2023-04-27T03:55:18.092Z,7.10
2023-04-27T03:57:47.048Z,7.20
2023-04-27T04:00:16.745Z,7.20
2023-04-27T04:02:45.770Z,7.20
2023-04-27T04:05:15.604Z,7.30
2023-04-27T04:07:45.224Z,7.20
2023-04-27T04:10:17.191Z,7.20
2023-04-27T04:12:47.572Z,7.20
2023-04-27T04:15:16.614Z,7.30
2023-04-27T04:17:46.179Z,7.30
2023-04-27T04:20:16.106Z,7.30
2023-04-27T04:22:46.214Z,7.30
2023-04-27T04:25:16.561Z,7.30
2023-04-27T04:27:45.820Z,7.40
2023-04-27T04:30:15.625Z,7.40
2023-04-27T04:32:45.421Z,7.40
2023-04-27T04:35:16.717Z,7.40
2023-04-27T04:37:45.889Z,7.30
2023-04-27T04:40:17.046Z,7.40
2023-04-27T04:42:46.365Z,7.40
2023-04-27T04:45:15.764Z,7.40
2023-04-27T04:47:44.856Z,7.40
2023-04-27T04:50:14.254Z,7.30
2023-04-27T04:52:43.827Z,7.40
2023-04-27T04:55:13.811Z,7.50
2023-04-27T04:57:44.142Z,7.50
2023-04-27T05:00:14.352Z,7.60
2023-04-27T05:02:43.798Z,7.40
2023-04-27T05:05:12.783Z,7.40
2023-04-27T05:07:41.798Z,7.40
2023-04-27T05:10:11.269Z,7.50
2023-04-27T05:12:40.337Z,7.60
2023-04-27T05:15:12.144Z,7.60
2023-04-27T05:17:41.367Z,7.60
2023-04-27T05:20:11.666Z,7.60
2023-04-27T05:22:40.710Z,7.70
2023-04-27T05:25:10.202Z,7.80
2023-04-27T05:27:39.160Z,7.80
2023-04-27T05:30:11.176Z,7.80
2023-04-27T05:32:40.311Z,7.90
2023-04-27T05:35:09.910Z,8.00
2023-04-27T05:37:38.850Z,8.10
2023-04-27T05:40:09.736Z,8.10
2023-04-27T05:42:39.146Z,8.20
2023-04-27T05:45:10.828Z,8.20
2023-04-27T05:47:39.885Z,8.20
2023-04-27T05:50:09.777Z,8.10
2023-04-27T05:52:39.225Z,8.00
2023-04-27T05:55:09.009Z,8.10
2023-04-27T05:57:37.935Z,8.10
2023-04-27T06:00:11.161Z,8.00
2023-04-27T06:02:44.423Z,8.00
2023-04-27T06:05:13.732Z,8.10
2023-04-27T06:07:43.860Z,8.10
2023-04-27T06:10:13.053Z,8.20
2023-04-27T06:12:43.423Z,8.20
2023-04-27T06:15:13.552Z,8.10
2023-04-27T06:17:44.677Z,8.20
2023-04-27T06:20:14.050Z,8.30
2023-04-27T06:22:43.093Z,8.40
2023-04-27T06:25:12.394Z,8.50
2023-04-27T06:27:41.976Z,8.60
2023-04-27T06:30:11.832Z,8.70
2023-04-27T06:32:40.884Z,8.70
2023-04-27T06:35:11.836Z,8.80
2023-04-27T06:37:40.769Z,8.90
2023-04-27T06:40:10.172Z,9.00
2023-04-27T06:42:39.321Z,9.00
2023-04-27T06:45:09.306Z,9.10
2023-04-27T06:47:38.073Z,9.10
2023-04-27T06:50:07.707Z,9.20
2023-04-27T06:52:38.136Z,9.30
2023-04-27T06:55:07.910Z,9.30
2023-04-27T06:57:37.772Z,9.40
2023-04-27T07:00:07.874Z,9.40
2023-04-27T07:02:37.022Z,9.50
2023-04-27T07:05:06.715Z,9.40
2023-04-27T07:07:37.302Z,9.50
2023-04-27T07:10:07.321Z,9.70
2023-04-27T07:12:36.358Z,9.80
2023-04-27T07:15:06.620Z,9.70
2023-04-27T07:17:36.042Z,9.70
2023-04-27T07:20:06.588Z,9.70
2023-04-27T07:22:37.043Z,9.60
2023-04-27T07:25:07.576Z,9.60
2023-04-27T07:27:36.800Z,9.70
2023-04-27T07:30:09.492Z,9.80
2023-04-27T07:32:40.742Z,9.90
2023-04-27T07:35:11.008Z,10.10
2023-04-27T07:37:41.891Z,10.20
2023-04-27T07:40:16.509Z,10.30
2023-04-27T07:42:46.678Z,10.40
2023-04-27T07:45:17.502Z,10.50
2023-04-27T07:47:46.676Z,10.60
2023-04-27T07:50:17.872Z,10.50
2023-04-27T07:52:49.517Z,10.70
2023-04-27T07:55:18.627Z,10.80
2023-04-27T07:57:47.546Z,10.70
2023-04-27T08:00:17.769Z,10.80
2023-04-27T08:02:47.462Z,10.80
2023-04-27T08:05:16.920Z,10.80
2023-04-27T08:07:47.791Z,10.90
2023-04-27T08:10:17.349Z,11.00
2023-04-27T08:12:46.693Z,11.20
2023-04-27T08:15:15.905Z,11.30
2023-04-27T08:17:45.164Z,11.40
2023-04-27T08:20:14.626Z,11.50
2023-04-27T08:22:44.968Z,11.60
2023-04-27T08:25:15.473Z,11.70
2023-04-27T08:27:44.447Z,11.80
2023-04-27T08:30:14.251Z,11.90
2023-04-27T08:32:43.256Z,12.20
2023-04-27T08:35:12.352Z,12.50
2023-04-27T08:37:41.300Z,12.50
2023-04-27T08:40:12.071Z,12.50
2023-04-27T08:42:54.999Z,12.50
2023-04-27T08:45:25.120Z,12.40
2023-04-27T08:47:54.527Z,12.50
2023-04-27T08:50:24.272Z,12.40
2023-04-27T08:52:53.833Z,12.60
2023-04-27T08:55:23.664Z,12.70
2023-04-27T08:57:57.950Z,12.80
2023-04-27T09:00:27.824Z,12.80
2023-04-27T09:02:57.058Z,12.90
2023-04-27T09:05:26.056Z,12.90
2023-04-27T09:08:05.293Z,12.90
2023-04-27T09:10:45.427Z,13.10
2023-04-27T09:13:16.117Z,13.10
2023-04-27T09:15:48.532Z,13.10
2023-04-27T09:18:19.047Z,13.30
2023-04-27T09:20:49.139Z,13.20
2023-04-27T09:23:28.663Z,13.30
2023-04-27T09:25:58.035Z,13.40
2023-04-27T09:28:30.891Z,13.40
2023-04-27T09:31:01.729Z,13.50
2023-04-27T09:33:32.772Z,13.60
2023-04-27T09:36:03.468Z,13.80
2023-04-27T09:38:32.697Z,14.00
2023-04-27T09:41:02.267Z,14.00
2023-04-27T09:43:32.747Z,14.10
2023-04-27T09:46:01.754Z,14.40
2023-04-27T09:48:30.733Z,14.50
2023-04-27T09:50:59.823Z,14.50
2023-04-27T09:53:34.929Z,14.70
2023-04-27T09:56:26.340Z,15.00
2023-04-27T09:59:18.778Z,14.90
2023-04-27T10:01:49.970Z,14.60
2023-04-27T10:04:34.491Z,14.50
2023-04-27T10:07:05.965Z,14.80
2023-04-27T10:09:42.362Z,14.70
2023-04-27T10:12:20.269Z,15.00
2023-04-27T10:14:55.152Z,15.30
2023-04-27T10:17:31.610Z,15.00
2023-04-27T10:20:02.410Z,14.90
2023-04-27T10:22:42.254Z,15.00
2023-04-27T10:25:19.450Z,15.10
2023-04-27T10:27:53.665Z,15.30
2023-04-27T10:30:26.069Z,15.50
2023-04-27T10:32:56.918Z,15.10
2023-04-27T10:35:35.658Z,15.30
2023-04-27T10:38:09.050Z,15.40
2023-04-27T10:40:38.851Z,15.60
2023-04-27T10:43:12.343Z,15.50
2023-04-27T10:45:43.251Z,15.20
2023-04-27T10:48:15.742Z,15.10
2023-04-27T10:50:46.812Z,15.00
2023-04-27T10:53:17.037Z,15.20
2023-04-27T10:55:45.881Z,15.40
2023-04-27T10:58:14.745Z,15.10
2023-04-27T11:00:45.211Z,15.10
2023-04-27T11:03:17.061Z,15.40
2023-04-27T11:05:48.046Z,15.60
2023-04-27T11:08:18.429Z,15.60
2023-04-27T11:10:50.283Z,15.60
2023-04-27T11:13:20.919Z,15.80
2023-04-27T11:15:54.319Z,15.60
2023-04-27T11:18:26.044Z,15.60
2023-04-27T11:21:06.957Z,15.60
2023-04-27T11:23:38.587Z,15.70
2023-04-27T11:26:12.046Z,15.50
2023-04-27T11:28:41.583Z,15.50
2023-04-27T11:31:12.514Z,15.70
2023-04-27T11:33:49.635Z,15.70
2023-04-27T11:36:19.381Z,15.90
2023-04-27T11:38:48.681Z,15.40
2023-04-27T11:41:17.963Z,15.30
2023-04-27T11:43:47.835Z,15.30
2023-04-27T11:46:22.469Z,15.10
2023-04-27T11:48:52.267Z,15.00
2023-04-27T11:51:21.459Z,14.90
2023-04-27T11:53:51.284Z,14.90
2023-04-27T11:56:20.573Z,15.10
2023-04-27T11:58:49.561Z,15.40
2023-04-27T12:01:27.742Z,15.40
2023-04-27T12:04:03.979Z,15.40
2023-04-27T12:06:33.855Z,15.30
2023-04-27T12:09:04.484Z,15.30
2023-04-27T12:11:33.838Z,15.20
2023-04-27T12:14:04.183Z,15.10
2023-04-27T12:16:34.597Z,15.00
2023-04-27T12:19:03.756Z,15.10
2023-04-27T12:21:34.106Z,15.10
2023-04-27T12:24:03.006Z,15.20
2023-04-27T12:26:32.133Z,15.30
2023-04-27T12:29:01.293Z,15.20
2023-04-27T12:31:31.378Z,15.40
2023-04-27T12:34:01.732Z,15.40
2023-04-27T12:36:31.822Z,15.30
2023-04-27T12:39:13.603Z,15.50
2023-04-27T12:41:43.026Z,15.40
2023-04-27T12:44:12.904Z,15.30
2023-04-27T12:46:43.090Z,15.10
2023-04-27T12:49:13.732Z,15.20
2023-04-27T12:51:42.670Z,15.50
2023-04-27T12:54:13.158Z,15.70
2023-04-27T12:56:43.117Z,15.80
2023-04-27T12:59:12.128Z,15.70
2023-04-27T13:01:41.116Z,15.80
2023-04-27T13:04:10.120Z,15.90
2023-04-27T13:06:40.602Z,16.00
2023-04-27T13:09:09.910Z,16.20
2023-04-27T13:11:39.548Z,16.50
2023-04-27T13:14:08.393Z,16.70
2023-04-27T13:16:37.215Z,16.80
2023-04-27T13:19:06.060Z,16.60
2023-04-27T13:21:34.923Z,16.40
2023-04-27T13:24:05.351Z,16.40
2023-04-27T13:26:34.392Z,16.30
2023-04-27T13:29:04.593Z,16.30
2023-04-27T13:31:34.021Z,16.50
2023-04-27T13:34:04.938Z,16.80
2023-04-27T13:36:33.721Z,16.80
2023-04-27T13:39:05.089Z,16.90
2023-04-27T13:41:35.019Z,17.10
2023-04-27T13:44:04.070Z,17.10
2023-04-27T13:46:32.953Z,17.00
2023-04-27T13:49:01.849Z,16.90
2023-04-27T13:51:32.256Z,16.90
2023-04-27T13:54:02.325Z,17.00
2023-04-27T13:56:32.522Z,17.20
2023-04-27T13:59:01.513Z,17.20
2023-04-27T14:01:30.447Z,17.20
2023-04-27T14:03:59.428Z,17.10
2023-04-27T14:06:29.738Z,17.00
2023-04-27T14:08:59.016Z,17.00
2023-04-27T14:11:27.973Z,16.70
2023-04-27T14:13:58.208Z,16.50
2023-04-27T14:16:27.472Z,16.50
2023-04-27T14:18:57.094Z,16.40
2023-04-27T14:21:26.071Z,16.50
2023-04-27T14:23:55.463Z,16.50
2023-04-27T14:26:24.437Z,16.40
2023-04-27T14:28:58.036Z,16.40
2023-04-27T14:31:32.502Z,16.30
2023-04-27T14:34:01.451Z,16.40
2023-04-27T14:36:30.207Z,16.50
2023-04-27T14:38:59.067Z,16.40
2023-04-27T14:41:27.972Z,16.50
2023-04-27T14:43:56.749Z,16.70
2023-04-27T14:46:25.875Z,16.80
2023-04-27T14:48:56.190Z,16.90
2023-04-27T14:51:25.021Z,17.20
2023-04-27T14:53:53.879Z,17.40
2023-04-27T14:56:24.205Z,17.50
2023-04-27T14:58:55.023Z,17.70
2023-04-27T15:01:24.042Z,17.60
2023-04-27T15:03:54.444Z,17.70
2023-04-27T15:06:28.036Z,18.00
2023-04-27T15:08:57.195Z,18.20
2023-04-27T15:11:26.097Z,17.90
2023-04-27T15:13:54.974Z,17.80
2023-04-27T15:16:23.817Z,17.50
2023-04-27T15:18:52.710Z,17.40
2023-04-27T15:21:22.827Z,17.50
2023-04-27T15:23:54.434Z,17.60
2023-04-27T15:26:24.004Z,17.80
2023-04-27T15:28:52.806Z,17.80
2023-04-27T15:31:22.294Z,17.70
2023-04-27T15:33:51.110Z,17.70
2023-04-27T15:36:20.254Z,17.70
2023-04-27T15:38:49.630Z,17.60
2023-04-27T15:41:20.565Z,17.60
2023-04-27T15:43:49.973Z,17.60
2023-04-27T15:46:19.334Z,17.70
2023-04-27T15:48:48.330Z,17.60
2023-04-27T15:51:17.317Z,17.50
2023-04-27T15:53:46.229Z,17.60
2023-04-27T15:56:16.357Z,17.60
2023-04-27T15:58:47.156Z,17.70
2023-04-27T16:01:16.069Z,17.70
2023-04-27T16:03:45.059Z,17.70
2023-04-27T16:06:13.912Z,17.70
2023-04-27T16:08:42.651Z,17.40
2023-04-27T16:11:13.220Z,17.30
2023-04-27T16:13:42.164Z,17.20
2023-04-27T16:16:12.391Z,17.00
2023-04-27T16:18:41.517Z,16.90
2023-04-27T16:21:10.496Z,17.00
2023-04-27T16:23:39.352Z,17.10
2023-04-27T16:26:08.116Z,17.20
2023-04-27T16:28:37.207Z,17.10
2023-04-27T16:31:06.320Z,17.10
2023-04-27T16:33:36.805Z,17.20
2023-04-27T16:36:06.470Z,17.20
2023-04-27T16:38:36.609Z,17.30
2023-04-27T16:41:07.904Z,17.30
2023-04-27T16:43:36.832Z,17.30
2023-04-27T16:46:08.329Z,17.30
2023-04-27T16:48:38.761Z,17.20
2023-04-27T16:51:08.043Z,17.30
2023-04-27T16:53:37.412Z,17.40
2023-04-27T16:56:06.973Z,17.30
2023-04-27T16:58:36.276Z,17.10
2023-04-27T17:01:05.215Z,17.10
2023-04-27T17:03:36.064Z,16.90
2023-04-27T17:06:06.604Z,17.00
2023-04-27T17:08:35.464Z,16.80
2023-04-27T17:11:09.757Z,16.50
2023-04-27T17:13:38.630Z,16.50
2023-04-27T17:16:11.749Z,16.50
2023-04-27T17:18:40.747Z,16.40
2023-04-27T17:21:11.221Z,16.40
2023-04-27T17:23:41.502Z,16.30
2023-04-27T17:26:10.748Z,16.20
2023-04-27T17:28:39.610Z,16.10
2023-04-27T17:31:08.630Z,15.90
2023-04-27T17:33:38.253Z,15.90
2023-04-27T17:36:07.587Z,16.00
2023-04-27T17:38:40.865Z,16.10
2023-04-27T17:41:09.727Z,16.20
2023-04-27T17:43:38.934Z,16.20
2023-04-27T17:46:09.746Z,16.20
2023-04-27T17:48:38.991Z,16.00
2023-04-27T17:51:08.694Z,16.00
2023-04-27T17:53:41.028Z,15.80
2023-04-27T17:56:09.789Z,15.90
2023-04-27T17:58:40.462Z,15.80
2023-04-27T18:01:11.567Z,15.80
2023-04-27T18:03:42.183Z,15.60
2023-04-27T18:06:11.778Z,15.60
2023-04-27T18:08:42.048Z,15.60
2023-04-27T18:11:11.277Z,15.60
2023-04-27T18:13:40.355Z,15.60
2023-04-27T18:16:09.333Z,15.60
2023-04-27T18:18:43.199Z,15.60
2023-04-27T18:21:12.384Z,15.60
2023-04-27T18:23:44.370Z,15.50
2023-04-27T18:26:13.284Z,15.40
2023-04-27T18:28:42.276Z,15.40
2023-04-27T18:31:18.143Z,15.50
2023-04-27T18:33:47.587Z,15.50
2023-04-27T18:36:16.472Z,15.40
2023-04-27T18:38:49.767Z,15.40
2023-04-27T18:41:19.223Z,15.40
2023-04-27T18:43:48.374Z,15.40
2023-04-27T18:46:17.530Z,15.40
2023-04-27T18:48:46.503Z,15.40
2023-04-27T18:51:15.561Z,15.40
2023-04-27T18:53:44.639Z,15.40
2023-04-27T18:56:15.927Z,15.40
2023-04-27T18:58:44.964Z,15.30
2023-04-27T19:01:20.807Z,15.30
2023-04-27T19:03:50.180Z,15.30
2023-04-27T19:06:21.061Z,15.30
2023-04-27T19:08:50.485Z,15.30
2023-04-27T19:11:22.510Z,15.20
2023-04-27T19:13:52.366Z,15.10
2023-04-27T19:16:21.755Z,15.10
2023-04-27T19:18:50.818Z,15.10
2023-04-27T19:21:19.997Z,15.10
2023-04-27T19:23:48.984Z,15.10
2023-04-27T19:26:17.947Z,15.00
2023-04-27T19:28:48.253Z,15.00
2023-04-27T19:31:17.469Z,14.90
2023-04-27T19:33:47.160Z,14.90
2023-04-27T19:36:16.528Z,15.00
2023-04-27T19:38:45.492Z,15.10
2023-04-27T19:41:15.105Z,15.10
2023-04-27T19:43:44.312Z,15.00
2023-04-27T19:46:14.614Z,14.90
2023-04-27T19:48:43.734Z,15.00
2023-04-27T19:51:13.817Z,14.90
2023-04-27T19:53:42.927Z,14.90
2023-04-27T19:56:11.806Z,14.90
2023-04-27T19:58:40.749Z,14.90
2023-04-27T20:01:13.030Z,14.90
2023-04-27T20:03:44.225Z,14.90
2023-04-27T20:06:14.928Z,14.90
2023-04-27T20:08:43.945Z,15.00
2023-04-27T20:11:13.201Z,15.10
2023-04-27T20:13:44.919Z,15.00
2023-04-27T20:16:13.922Z,14.90
2023-04-27T20:18:45.597Z,14.90
2023-04-27T20:21:14.593Z,15.00
2023-04-27T20:23:43.398Z,15.00
2023-04-27T20:26:12.364Z,15.00
2023-04-27T20:28:41.334Z,14.90
2023-04-27T20:31:10.997Z,14.80
2023-04-27T20:33:39.846Z,14.70
2023-04-27T20:36:17.093Z,14.60
2023-04-27T20:38:47.387Z,14.50
2023-04-27T20:41:16.520Z,14.40
2023-04-27T20:43:46.046Z,14.30
2023-04-27T20:46:15.063Z,14.20
2023-04-27T20:48:44.576Z,14.20
2023-04-27T20:51:15.085Z,14.10
2023-04-27T20:53:43.985Z,14.10
2023-04-27T20:56:13.203Z,14.10
2023-04-27T20:58:42.167Z,14.00
2023-04-27T21:01:11.450Z,14.00
2023-04-27T21:03:41.593Z,13.80
2023-04-27T21:06:10.958Z,13.80
2023-04-27T21:08:43.040Z,13.90
2023-04-27T21:11:12.138Z,14.00
2023-04-27T21:13:41.318Z,14.10
2023-04-27T21:16:10.643Z,14.30
2023-04-27T21:18:40.483Z,14.30
2023-04-27T21:21:09.744Z,14.30
2023-04-27T21:23:38.695Z,14.20
2023-04-27T21:26:10.861Z,14.10
2023-04-27T21:28:41.079Z,14.10
2023-04-27T21:31:10.120Z,14.10
2023-04-27T21:33:39.349Z,14.10
2023-04-27T21:36:08.726Z,14.00
2023-04-27T21:38:39.021Z,14.00
2023-04-27T21:41:11.840Z,14.00
2023-04-27T21:43:42.228Z,14.00
2023-04-27T21:46:11.041Z,14.10
2023-04-27T21:48:40.496Z,14.10
2023-04-27T21:51:09.923Z,14.10
2023-04-27T21:53:38.812Z,14.00
2023-04-27T21:56:10.320Z,13.90
2023-04-27T21:58:39.489Z,14.00
2023-04-27T22:01:08.526Z,14.00
2023-04-27T22:03:38.223Z,13.90
2023-04-27T22:06:09.156Z,13.90
2023-04-27T22:08:38.509Z,13.80
2023-04-27T22:11:09.084Z,13.60
2023-04-27T22:13:38.240Z,13.60
2023-04-27T22:16:07.506Z,13.70
2023-04-27T22:18:36.812Z,13.70
2023-04-27T22:21:05.946Z,13.70
2023-04-27T22:23:35.205Z,13.70
2023-04-27T22:26:04.073Z,13.80
2023-04-27T22:28:34.547Z,13.80
2023-04-27T22:31:03.664Z,13.80
2023-04-27T22:33:33.373Z,13.90
2023-04-27T22:36:02.382Z,13.90
2023-04-27T22:38:31.949Z,13.90
2023-04-27T22:41:01.031Z,13.90
2023-04-27T22:43:30.666Z,13.80
2023-04-27T22:46:00.905Z,13.80
2023-04-27T22:48:29.889Z,13.80
2023-04-27T22:50:58.615Z,13.80
2023-04-27T22:53:27.625Z,13.80
2023-04-27T22:55:59.480Z,13.80
2023-04-27T22:58:28.315Z,13.70
2023-04-27T23:00:59.885Z,13.70
2023-04-27T23:03:30.352Z,13.70
2023-04-27T23:06:01.046Z,13.80
2023-04-27T23:08:30.363Z,13.90
2023-04-27T23:10:59.315Z,13.80
2023-04-27T23:13:28.419Z,13.80
2023-04-27T23:15:57.754Z,13.80
2023-04-27T23:18:26.584Z,13.60
2023-04-27T23:20:57.070Z,13.70
2023-04-27T23:23:26.103Z,13.70
2023-04-27T23:25:55.294Z,13.70
2023-04-27T23:28:24.754Z,13.80
2023-04-27T23:30:55.382Z,13.90
2023-04-27T23:33:24.657Z,13.80
2023-04-27T23:35:56.084Z,13.80
2023-04-27T23:38:26.636Z,13.90
2023-04-27T23:40:55.652Z,14.00
2023-04-27T23:43:24.633Z,14.10
2023-04-27T23:45:54.067Z,14.00
2023-04-27T23:48:23.325Z,14.00
2023-04-27T23:51:01.183Z,13.90
2023-04-27T23:53:32.298Z,13.70
2023-04-27T23:56:01.659Z,13.50
2023-04-27T23:58:31.183Z,13.40
